Oldenburg, IN (47036)

11:58 AM EST on November 22, 2014 (GMT -0500)
nearby | Change Station
CLOSE
Current Station
Personal Weather Station
Location: Lake Santee, IN
Elevation: 1027 ft
Nearby Weather Stations

Elev 1027 ft 39.39 °N, 85.30 °W | Updated 3 minutes ago

Overcast
Overcast
49.9 °F
Feels Like 45 °F
N
15.0
Wind Variable Wind from South
Gusts 21.0 mph

Today
High -- | Low -- °F
--% Chance of Precip.
Yesterday
High -- | Low -- °F
Precip. -- in
7:32 AM 5:21 PM
New Moon, 0% visible
Pressure 30.17 in
Visibility 10.0 miles
Clouds Mostly Cloudy 6000 ft
Overcast 10000 ft
Windchill 45 °F
Dew Point 40 °F
Humidity 68%
Rainfall 0.00 in
Snow Depth Not available.
UV 1 out of 12
Pollen .10 out of 12
Air Quality Not available.
Flu Activity Not available.
METAR KGEZ 221653Z AUTO 19015KT 10SM BKN060 OVC100 09/04 A3015 RMK AO2 SLP215 T00940044

More Conditions Fewer Conditions

Pressure 30.17 in
Visibility 10.0 miles
Clouds Mostly Cloudy 6000 ft
Overcast 10000 ft
Windchill 45 °F
Dew Point 40 °F
Humidity 68%
Rainfall 0.00 in
Snow Depth Not available.
UV 1 out of 12
Pollen .10 out of 12
Air Quality Not available.
Flu Activity Not available.
METAR KGEZ 221653Z AUTO 19015KT 10SM BKN060 OVC100 09/04 A3015 RMK AO2 SLP215 T00940044

More Conditions Fewer Conditions

10-Day Weather Forecast

Almanac

Astronomy

Nov. 22, 2014 Rise Set
Actual Time
Civil Twilight
Nautical Twilight
Astronomical Twilight
Moon
Length of Visible Light
Length of Day
Tomorrow will be .
, % of the Moon is Illuminated

Today's Extremes

State Highs State Lows

Community

WunderPhotos

Upload Photos

1,772,855 photos uploaded!

WunderBlogs® & News

Nearby

Air Quality

  Air Quality AQ Index Pollutant
Not available.

Snow Depth

Station Depth Elevation

Earthquake Activity

City Distance Mag. Time & Date
Minimum magnitude displayed is 2.5.

Coastal Water Temperatures

Place Temperature

Nearby Weather Stations